Time;durP1;ratioP1;P1;durP2;ratioP2;P2;SDS_P1;SDS_P2;PMS_P1;PMS_P2;Temp;Humidity;BMP_temperature;BMP_pressure;BME280_temperature;BME280_humidity;BME280_pressure;Samples;Min_cycle;Max_cycle;Signal;HPM_P1;HPM_P2
2023/10/25 00:00:29;;;;;;;5.40;2.63;;;11.90;99.90;;;;;;4975019;28;20179;-84
2023/10/25 00:02:55;;;;;;;5.63;2.90;;;11.90;99.90;;;;;;4974917;28;20255;-84
2023/10/25 00:05:21;;;;;;;4.40;2.57;;;11.90;99.90;;;;;;4973629;28;20184;-84
2023/10/25 00:07:47;;;;;;;6.10;2.60;;;11.90;99.90;;;;;;4974652;28;20171;-84
2023/10/25 00:10:13;;;;;;;6.90;2.90;;;11.90;99.90;;;;;;4974629;28;20261;-84
2023/10/25 00:12:39;;;;;;;9.90;3.00;;;11.90;99.90;;;;;;4975143;28;20172;-83
2023/10/25 00:15:05;;;;;;;4.63;2.80;;;11.90;99.90;;;;;;4973682;28;20230;-84
2023/10/25 00:17:31;;;;;;;5.23;2.67;;;11.90;99.90;;;;;;4974734;28;20250;-85
2023/10/25 00:19:57;;;;;;;3.90;2.80;;;12.00;99.90;;;;;;4974662;28;20251;-83
2023/10/25 00:22:22;;;;;;;7.63;3.07;;;12.00;99.90;;;;;;4974479;28;20176;-84
2023/10/25 00:24:48;;;;;;;4.93;2.50;;;12.10;99.90;;;;;;4974936;28;20668;-84
2023/10/25 00:27:14;;;;;;;4.30;2.53;;;12.10;99.90;;;;;;4974316;28;20612;-83
2023/10/25 00:29:39;;;;;;;5.90;2.80;;;12.10;99.90;;;;;;4974450;28;20738;-83
2023/10/25 00:32:05;;;;;;;6.50;2.47;;;12.10;99.90;;;;;;4974653;28;20179;-83
2023/10/25 00:34:31;;;;;;;4.43;2.30;;;12.10;99.90;;;;;;4974754;28;20643;-83
2023/10/25 00:36:57;;;;;;;4.33;2.60;;;12.10;99.90;;;;;;4974308;28;20176;-84
2023/10/25 00:39:23;;;;;;;6.40;2.40;;;12.10;99.90;;;;;;4973241;28;20180;-83
2023/10/25 00:41:48;;;;;;;12.43;2.63;;;12.10;99.90;;;;;;4974517;28;20183;-83
2023/10/25 00:44:14;;;;;;;5.70;2.10;;;12.10;99.90;;;;;;4973151;28;20628;-83
2023/10/25 00:46:40;;;;;;;3.17;2.50;;;12.10;99.90;;;;;;4974559;28;20176;-83
2023/10/25 00:49:07;;;;;;;4.67;2.50;;;12.10;99.90;;;;;;4974319;28;20246;-84
2023/10/25 00:51:33;;;;;;;8.40;2.47;;;12.10;99.90;;;;;;4974124;28;20168;-83
2023/10/25 00:54:01;;;;;;;5.53;2.00;;;12.00;99.90;;;;;;4974427;28;20200;-83
2023/10/25 00:56:29;;;;;;;6.00;1.93;;;12.00;99.90;;;;;;4974227;28;20164;-84
2023/10/25 00:58:56;;;;;;;3.63;2.17;;;12.00;99.90;;;;;;4974358;28;20219;-83
2023/10/25 01:01:23;;;;;;;3.40;1.77;;;12.00;99.90;;;;;;4974565;28;20171;-83
2023/10/25 01:03:49;;;;;;;5.93;2.13;;;12.00;99.90;;;;;;4974192;28;20180;-83
2023/10/25 01:06:18;;;;;;;3.17;1.83;;;12.00;99.90;;;;;;4973867;28;20203;-83
2023/10/25 01:08:44;;;;;;;5.83;2.20;;;12.00;99.90;;;;;;4974082;28;20208;-82
2023/10/25 01:11:11;;;;;;;2.50;1.87;;;12.00;99.90;;;;;;4974185;28;20180;-83
2023/10/25 01:13:37;;;;;;;6.80;2.50;;;12.00;99.90;;;;;;4974235;28;20287;-84
2023/10/25 01:16:03;;;;;;;4.67;1.80;;;12.00;99.90;;;;;;4972959;28;20664;-83
2023/10/25 01:18:29;;;;;;;6.13;1.90;;;12.00;99.90;;;;;;4973143;28;20176;-84
2023/10/25 01:20:54;;;;;;;6.00;2.30;;;12.00;99.90;;;;;;4973646;28;20172;-84
2023/10/25 01:23:20;;;;;;;5.17;2.57;;;12.10;99.90;;;;;;4973927;28;20227;-83
2023/10/25 01:25:46;;;;;;;8.27;2.30;;;12.10;99.90;;;;;;4974037;28;20172;-83
2023/10/25 01:28:12;;;;;;;6.60;3.13;;;12.10;99.90;;;;;;4973974;28;20165;-83
2023/10/25 01:30:38;;;;;;;4.67;2.90;;;12.10;99.90;;;;;;4972954;28;20184;-83
2023/10/25 01:33:04;;;;;;;6.10;2.87;;;12.00;99.90;;;;;;4972957;28;20175;-83
2023/10/25 01:35:30;;;;;;;3.90;2.53;;;12.00;99.90;;;;;;4973868;28;20187;-84
2023/10/25 01:37:56;;;;;;;7.40;2.70;;;12.00;99.90;;;;;;4974696;28;20624;-83
2023/10/25 01:40:21;;;;;;;5.77;2.70;;;12.00;99.90;;;;;;4977561;28;20225;-82
2023/10/25 01:42:48;;;;;;;5.40;2.70;;;11.90;99.90;;;;;;4977527;28;20208;-83
2023/10/25 01:45:13;;;;;;;9.93;3.00;;;11.90;99.90;;;;;;4977655;28;20191;-83
2023/10/25 01:47:39;;;;;;;4.17;2.47;;;11.80;99.90;;;;;;4977548;28;20619;-83
2023/10/25 01:50:10;;;;;;;4.67;2.43;;;11.80;99.90;;;;;;4976747;28;20615;-82
2023/10/25 01:52:35;;;;;;;6.27;2.43;;;11.80;99.90;;;;;;4977420;28;20192;-84
2023/10/25 01:55:01;;;;;;;5.23;2.17;;;11.80;99.90;;;;;;4977546;28;20230;-83
2023/10/25 01:57:27;;;;;;;7.00;2.63;;;11.70;99.90;;;;;;4977162;28;20191;-83
2023/10/25 01:59:53;;;;;;;5.80;2.40;;;11.70;99.90;;;;;;4977655;28;20514;-83
2023/10/25 02:02:18;;;;;;;3.90;2.53;;;11.70;99.90;;;;;;4977224;28;20174;-83
2023/10/25 02:04:44;;;;;;;4.57;2.50;;;11.70;99.90;;;;;;4976820;28;20675;-83
2023/10/25 02:07:10;;;;;;;6.23;2.40;;;11.70;99.90;;;;;;4977149;28;20647;-83
2023/10/25 02:09:35;;;;;;;6.07;2.60;;;11.70;99.90;;;;;;4975728;28;20234;-83
2023/10/25 02:12:01;;;;;;;7.00;2.60;;;11.60;99.90;;;;;;4977042;28;20187;-83
2023/10/25 02:14:27;;;;;;;6.40;2.80;;;11.60;99.90;;;;;;4977005;28;20191;-83
2023/10/25 02:16:53;;;;;;;4.63;2.33;;;11.60;99.90;;;;;;4976736;28;20188;-83
2023/10/25 02:19:19;;;;;;;6.20;2.43;;;11.60;99.90;;;;;;4976542;28;20547;-83
2023/10/25 02:21:45;;;;;;;5.70;2.30;;;11.60;99.90;;;;;;4976949;28;20164;-83
2023/10/25 02:24:12;;;;;;;4.07;2.10;;;11.60;99.90;;;;;;4976423;28;20227;-83
2023/10/25 02:26:37;;;;;;;4.80;2.53;;;11.60;99.90;;;;;;4975583;28;20176;-83
2023/10/25 02:29:03;;;;;;;5.00;2.50;;;11.60;99.90;;;;;;4976420;28;20204;-84
2023/10/25 02:31:29;;;;;;;4.03;2.53;;;11.60;99.90;;;;;;4976644;28;20184;-83
2023/10/25 02:33:54;;;;;;;4.90;2.23;;;11.60;99.90;;;;;;4976345;28;20172;-83
2023/10/25 02:36:20;;;;;;;5.17;2.43;;;11.60;99.90;;;;;;4976669;28;20190;-84
2023/10/25 02:38:49;;;;;;;2.97;2.23;;;11.50;99.90;;;;;;4976643;28;20176;-83
2023/10/25 02:41:15;;;;;;;2.63;2.20;;;11.60;99.90;;;;;;4976380;28;20188;-83
2023/10/25 02:43:41;;;;;;;5.23;2.20;;;11.60;99.90;;;;;;4976459;28;20234;-83
2023/10/25 02:46:08;;;;;;;6.17;2.50;;;11.60;99.90;;;;;;4976249;28;20180;-82
2023/10/25 02:48:38;;;;;;;3.17;2.10;;;11.60;99.90;;;;;;4975923;28;20294;-84
2023/10/25 02:51:04;;;;;;;4.33;2.47;;;11.50;99.90;;;;;;4976356;28;20168;-83
2023/10/25 02:53:31;;;;;;;5.03;2.17;;;11.50;99.90;;;;;;4976212;28;20729;-83
2023/10/25 02:56:04;;;;;;;5.00;2.00;;;11.50;99.90;;;;;;4976135;28;20179;-83
2023/10/25 02:58:30;;;;;;;3.87;2.27;;;11.50;99.90;;;;;;4976110;28;20168;-84
2023/10/25 03:00:56;;;;;;;5.20;2.30;;;11.50;99.90;;;;;;4976141;28;20168;-84
2023/10/25 03:03:33;;;;;;;3.83;2.43;;;11.50;99.90;;;;;;4975708;28;20179;-84
2023/10/25 03:05:58;;;;;;;5.33;2.30;;;11.40;99.90;;;;;;4976148;28;20178;-84
2023/10/25 03:08:26;;;;;;;4.87;2.33;;;11.40;99.90;;;;;;4975739;28;20200;-84
2023/10/25 03:10:52;;;;;;;4.13;2.27;;;11.50;99.90;;;;;;4975851;28;20579;-84
2023/10/25 03:13:18;;;;;;;4.17;2.20;;;11.40;99.90;;;;;;4975761;28;20179;-83
2023/10/25 03:15:44;;;;;;;7.97;2.27;;;11.40;99.90;;;;;;4975880;28;20227;-85
2023/10/25 03:18:09;;;;;;;5.20;2.43;;;11.40;99.90;;;;;;4975239;28;20175;-83
2023/10/25 03:20:35;;;;;;;2.23;1.90;;;11.40;99.90;;;;;;4975581;28;20175;-84
2023/10/25 03:23:01;;;;;;;2.93;2.10;;;11.30;99.90;;;;;;4975349;28;20271;-84
2023/10/25 03:25:27;;;;;;;3.77;1.90;;;11.30;99.90;;;;;;4975734;28;20227;-84
2023/10/25 03:27:53;;;;;;;4.07;2.27;;;11.30;99.90;;;;;;4975510;28;20172;-84
2023/10/25 03:30:18;;;;;;;3.53;1.90;;;11.30;99.90;;;;;;4975321;28;20214;-84
2023/10/25 03:32:44;;;;;;;4.23;1.97;;;11.30;99.90;;;;;;4975438;28;20250;-83
2023/10/25 03:35:10;;;;;;;3.97;2.10;;;11.30;99.90;;;;;;4975294;28;20575;-84
2023/10/25 03:37:39;;;;;;;3.30;2.10;;;11.20;99.90;;;;;;4975151;28;20172;-84
2023/10/25 03:40:09;;;;;;;6.17;1.93;;;11.30;99.90;;;;;;4974009;28;20185;-83
2023/10/25 03:42:35;;;;;;;3.90;2.20;;;11.30;99.90;;;;;;4975186;28;20603;-84
2023/10/25 03:45:01;;;;;;;4.43;2.30;;;11.20;99.90;;;;;;4974850;28;20172;-84
2023/10/25 03:47:27;;;;;;;5.00;2.20;;;11.20;99.90;;;;;;4975295;28;20195;-84
2023/10/25 03:49:53;;;;;;;7.83;2.17;;;11.20;99.90;;;;;;4973847;28;20675;-84
2023/10/25 03:52:19;;;;;;;2.40;1.77;;;11.20;99.90;;;;;;4975018;28;20188;-84
2023/10/25 03:54:44;;;;;;;4.17;2.50;;;11.20;99.90;;;;;;4975086;28;20183;-85
2023/10/25 03:57:10;;;;;;;4.70;2.00;;;11.20;99.90;;;;;;4974792;28;20168;-84
2023/10/25 03:59:35;;;;;;;3.43;2.23;;;11.20;99.90;;;;;;4974369;28;20587;-84
2023/10/25 04:02:01;;;;;;;5.00;2.30;;;11.20;99.90;;;;;;4974335;28;20168;-84
2023/10/25 04:04:27;;;;;;;6.10;2.30;;;11.20;99.90;;;;;;4974698;28;20176;-84
2023/10/25 04:06:53;;;;;;;11.57;2.43;;;11.20;99.90;;;;;;4975015;28;20178;-84
2023/10/25 04:09:19;;;;;;;3.57;2.20;;;11.20;99.90;;;;;;4974732;28;20534;-84
2023/10/25 04:11:44;;;;;;;3.67;1.90;;;11.20;99.90;;;;;;4974761;28;20164;-85
2023/10/25 04:14:10;;;;;;;2.93;2.20;;;11.20;99.90;;;;;;4974472;28;20260;-84
2023/10/25 04:16:37;;;;;;;2.20;1.87;;;11.30;99.90;;;;;;4974697;28;20186;-83
2023/10/25 04:19:02;;;;;;;2.73;1.80;;;11.30;99.90;;;;;;4974692;28;20283;-85
2023/10/25 04:21:28;;;;;;;2.27;1.70;;;11.20;99.90;;;;;;4974769;28;20608;-84
2023/10/25 04:23:53;;;;;;;3.23;2.07;;;11.20;99.90;;;;;;4974059;28;20224;-83
2023/10/25 04:26:19;;;;;;;3.70;1.70;;;11.30;99.90;;;;;;4974228;28;20175;-84
2023/10/25 04:28:45;;;;;;;6.60;2.10;;;11.30;99.90;;;;;;4973853;28;20279;-84
2023/10/25 04:31:11;;;;;;;8.43;2.10;;;11.30;99.90;;;;;;4974341;28;20254;-84
2023/10/25 04:33:37;;;;;;;4.50;2.00;;;11.30;99.90;;;;;;4974424;28;20172;-84
2023/10/25 04:36:04;;;;;;;2.00;1.83;;;11.30;99.90;;;;;;4974626;28;20230;-84
2023/10/25 04:38:30;;;;;;;2.10;1.80;;;11.30;99.90;;;;;;4974375;28;20176;-84
2023/10/25 04:40:56;;;;;;;2.87;1.73;;;11.30;99.90;;;;;;4974322;28;20179;-84
2023/10/25 04:43:22;;;;;;;2.77;1.63;;;11.40;99.90;;;;;;4974192;28;20243;-83
2023/10/25 04:45:48;;;;;;;4.57;1.50;;;11.40;99.90;;;;;;4973826;28;20168;-83
2023/10/25 04:48:14;;;;;;;3.83;1.73;;;11.40;99.90;;;;;;4973826;28;20199;-83
2023/10/25 04:50:40;;;;;;;4.07;1.90;;;11.40;99.90;;;;;;4974093;28;20179;-84
2023/10/25 04:53:06;;;;;;;3.10;1.50;;;11.40;99.90;;;;;;4972574;28;20207;-83
2023/10/25 04:55:34;;;;;;;5.70;2.10;;;11.50;99.90;;;;;;4974171;28;20183;-83
2023/10/25 04:58:00;;;;;;;4.33;1.70;;;11.50;99.90;;;;;;4974113;28;20226;-84
2023/10/25 05:00:26;;;;;;;5.90;1.83;;;11.50;99.90;;;;;;4974104;28;20172;-84
2023/10/25 05:02:52;;;;;;;3.43;2.00;;;11.50;99.90;;;;;;4973914;28;20640;-83
2023/10/25 05:05:18;;;;;;;5.20;1.70;;;11.50;99.90;;;;;;4973871;28;20180;-82
2023/10/25 05:07:44;;;;;;;2.93;1.60;;;11.40;99.90;;;;;;4973433;28;20172;-81
2023/10/25 05:10:12;;;;;;;3.80;1.90;;;11.40;99.90;;;;;;4973411;28;20212;-81
2023/10/25 05:12:42;;;;;;;4.20;2.00;;;11.30;99.90;;;;;;4973403;28;20172;-80
2023/10/25 05:15:09;;;;;;;3.03;1.70;;;11.20;99.90;;;;;;4977394;28;20183;-78
2023/10/25 05:17:36;;;;;;;3.60;1.40;;;11.10;99.90;;;;;;4977207;28;20204;-78
2023/10/25 05:20:07;;;;;;;6.17;1.90;;;11.00;99.90;;;;;;4976995;28;20176;-78
2023/10/25 05:22:38;;;;;;;3.23;1.70;;;11.00;99.90;;;;;;4977225;28;20183;-78
2023/10/25 05:25:06;;;;;;;2.20;1.60;;;11.00;99.90;;;;;;4975748;28;20691;-78
2023/10/25 05:27:33;;;;;;;5.50;1.77;;;11.00;99.90;;;;;;4976679;28;20214;-78
2023/10/25 05:30:03;;;;;;;41.40;4.90;;;10.90;99.90;;;;;;4977150;28;20211;-78
2023/10/25 05:32:33;;;;;;;8.27;2.00;;;10.80;99.90;;;;;;4977257;28;20528;-79
2023/10/25 05:35:00;;;;;;;5.97;2.10;;;10.80;99.90;;;;;;4976754;28;20187;-80
2023/10/25 05:37:27;;;;;;;52.10;6.20;;;10.80;99.90;;;;;;4976997;28;20687;-79
2023/10/25 05:39:53;;;;;;;5.70;1.90;;;10.70;99.90;;;;;;4976359;28;20267;-78
2023/10/25 05:42:20;;;;;;;3.97;1.73;;;10.70;99.90;;;;;;4975898;28;20260;-79
2023/10/25 05:44:47;;;;;;;4.80;2.20;;;10.70;99.90;;;;;;4976575;28;20604;-79
2023/10/25 05:47:14;;;;;;;4.30;2.00;;;10.70;99.90;;;;;;4975115;28;20175;-78
2023/10/25 05:49:40;;;;;;;5.23;2.23;;;10.60;99.90;;;;;;4976022;28;20565;-79
2023/10/25 05:52:07;;;;;;;6.20;2.13;;;10.60;99.90;;;;;;4976397;28;20272;-80
2023/10/25 05:54:35;;;;;;;6.23;2.60;;;10.60;99.90;;;;;;4975442;28;20191;-79
2023/10/25 05:57:01;;;;;;;3.87;2.33;;;10.60;99.90;;;;;;4974477;28;20242;-79
2023/10/25 05:59:27;;;;;;;2.50;1.80;;;10.60;99.90;;;;;;4976089;28;20172;-78
2023/10/25 06:02:02;;;;;;;5.33;2.20;;;10.60;99.90;;;;;;4976204;28;20203;-77
2023/10/25 06:04:30;;;;;;;3.60;2.10;;;10.50;99.90;;;;;;4976005;28;20182;-78
2023/10/25 06:06:56;;;;;;;3.77;2.40;;;10.60;99.90;;;;;;4975815;28;20226;-77
2023/10/25 06:09:22;;;;;;;5.57;2.67;;;10.50;99.90;;;;;;4976057;28;20294;-77
2023/10/25 06:11:48;;;;;;;5.97;2.70;;;10.50;99.90;;;;;;4975147;28;20179;-77
2023/10/25 06:14:13;;;;;;;4.43;2.03;;;10.50;99.90;;;;;;4975805;28;20187;-77
2023/10/25 06:16:39;;;;;;;5.10;2.40;;;10.50;99.90;;;;;;4975837;28;20179;-78
2023/10/25 06:19:05;;;;;;;6.50;2.60;;;10.50;99.90;;;;;;4976007;28;20200;-79
2023/10/25 06:21:31;;;;;;;4.97;2.30;;;10.50;99.90;;;;;;4976157;28;20180;-77
2023/10/25 06:23:56;;;;;;;6.70;2.30;;;10.50;99.90;;;;;;4974317;28;20302;-77
2023/10/25 06:26:24;;;;;;;7.77;2.63;;;10.40;99.90;;;;;;4974469;28;20169;-77
2023/10/25 06:28:49;;;;;;;9.03;3.13;;;10.40;99.90;;;;;;4974850;28;20576;-78
2023/10/25 06:31:15;;;;;;;6.73;3.00;;;10.50;99.90;;;;;;4975396;28;20179;-79
2023/10/25 06:33:41;;;;;;;6.20;3.07;;;10.50;99.90;;;;;;4975389;28;20183;-77
2023/10/25 06:36:08;;;;;;;5.57;2.50;;;10.50;99.90;;;;;;4975602;28;20254;-81
2023/10/25 06:38:34;;;;;;;5.63;2.67;;;10.50;99.90;;;;;;4974652;28;20164;-82
2023/10/25 06:41:00;;;;;;;7.20;2.80;;;10.40;99.90;;;;;;4975001;28;20172;-82
2023/10/25 06:43:29;;;;;;;8.47;2.67;;;10.40;99.90;;;;;;4974696;28;20238;-81
2023/10/25 06:45:55;;;;;;;4.87;2.97;;;10.40;99.90;;;;;;4975229;28;20164;-81
2023/10/25 06:48:21;;;;;;;4.03;2.77;;;10.50;99.90;;;;;;4975166;28;20186;-82
2023/10/25 06:50:47;;;;;;;4.00;2.80;;;10.40;99.90;;;;;;4973952;28;20585;-81
2023/10/25 06:53:13;;;;;;;3.50;2.87;;;10.40;99.90;;;;;;4973736;28;20687;-79
2023/10/25 06:55:39;;;;;;;3.50;2.63;;;10.50;99.90;;;;;;4969341;28;20211;-84
2023/10/25 06:58:05;;;;;;;6.27;2.47;;;10.40;99.90;;;;;;4973576;28;20204;-81
2023/10/25 07:00:31;;;;;;;4.97;2.80;;;10.40;99.90;;;;;;4969336;28;20603;-79
2023/10/25 07:03:02;;;;;;;2.73;2.53;;;10.40;99.90;;;;;;4967002;28;20180;-78
2023/10/25 07:05:29;;;;;;;4.27;2.30;;;10.30;99.90;;;;;;4969036;28;20686;-78
2023/10/25 07:07:55;;;;;;;4.30;2.70;;;10.30;99.90;;;;;;4972782;28;20180;-77
2023/10/25 07:10:23;;;;;;;6.83;3.00;;;10.20;99.90;;;;;;4971921;28;20211;-80
2023/10/25 07:12:49;;;;;;;8.83;3.03;;;10.20;99.90;;;;;;4972158;28;20168;-81
2023/10/25 07:15:15;;;;;;;2.70;2.30;;;10.30;99.90;;;;;;4972838;28;20245;-80
2023/10/25 07:17:41;;;;;;;4.63;2.37;;;10.40;99.90;;;;;;4973267;28;20628;-80
2023/10/25 07:20:11;;;;;;;3.03;2.40;;;10.30;99.90;;;;;;4974096;28;20251;-80
2023/10/25 07:22:38;;;;;;;5.00;2.27;;;10.30;99.90;;;;;;4974526;28;20198;-79
2023/10/25 07:25:07;;;;;;;5.23;2.50;;;10.40;99.90;;;;;;4974841;28;20301;-77
2023/10/25 07:27:33;;;;;;;5.07;2.40;;;10.30;99.90;;;;;;4974462;28;20182;-77
2023/10/25 07:29:58;;;;;;;3.17;2.80;;;10.40;99.90;;;;;;4974696;28;20215;-77
2023/10/25 07:32:26;;;;;;;4.90;2.90;;;10.40;99.90;;;;;;4974848;28;20200;-77
2023/10/25 07:34:52;;;;;;;6.37;2.77;;;10.40;99.90;;;;;;4974763;28;20175;-77
2023/10/25 07:37:17;;;;;;;4.93;2.33;;;10.30;99.90;;;;;;4973616;28;20227;-78
2023/10/25 07:39:43;;;;;;;4.57;2.70;;;10.30;99.90;;;;;;4973603;28;20275;-79
2023/10/25 07:42:09;;;;;;;3.13;2.03;;;10.30;99.90;;;;;;4973401;28;20255;-80
2023/10/25 07:44:35;;;;;;;2.20;1.90;;;10.20;99.90;;;;;;4974417;28;20266;-78
2023/10/25 07:47:01;;;;;;;3.40;2.43;;;10.20;99.90;;;;;;4974891;28;20168;-79
2023/10/25 07:49:27;;;;;;;3.97;2.47;;;10.20;99.90;;;;;;4974285;28;20212;-77
2023/10/25 07:51:56;;;;;;;3.17;2.20;;;10.20;99.90;;;;;;4974423;28;20196;-78
2023/10/25 07:54:22;;;;;;;4.13;2.90;;;10.10;99.90;;;;;;4974420;28;20187;-78
2023/10/25 07:56:47;;;;;;;4.13;3.27;;;10.20;99.90;;;;;;4973985;28;20180;-77
2023/10/25 07:59:13;;;;;;;5.07;3.47;;;10.20;99.90;;;;;;4973057;28;20216;-79
2023/10/25 08:01:39;;;;;;;4.50;3.20;;;10.30;99.90;;;;;;4974169;28;20323;-78
2023/10/25 08:04:08;;;;;;;5.23;3.60;;;10.20;99.90;;;;;;4974191;28;20258;-78
2023/10/25 08:06:34;;;;;;;3.30;2.90;;;10.30;99.90;;;;;;4973928;28;20164;-79
2023/10/25 08:09:00;;;;;;;3.37;3.07;;;10.30;99.90;;;;;;4972706;28;20211;-77
2023/10/25 08:11:26;;;;;;;6.43;3.37;;;10.30;99.90;;;;;;4974229;28;20172;-78
2023/10/25 08:13:52;;;;;;;4.23;3.53;;;10.30;99.90;;;;;;4972739;28;20660;-79
2023/10/25 08:16:17;;;;;;;7.20;4.00;;;10.30;99.90;;;;;;4974452;28;20227;-79
2023/10/25 08:18:43;;;;;;;3.90;3.50;;;10.40;99.90;;;;;;4974109;28;20185;-80
2023/10/25 08:21:13;;;;;;;4.77;3.03;;;10.50;99.90;;;;;;4973506;28;20219;-80
2023/10/25 08:23:39;;;;;;;3.47;3.17;;;10.50;99.90;;;;;;4973811;28;20329;-79
2023/10/25 08:26:05;;;;;;;3.40;3.10;;;10.40;99.90;;;;;;4973989;28;20175;-79
2023/10/25 08:28:30;;;;;;;7.17;3.67;;;10.30;99.90;;;;;;4973795;28;20508;-79
2023/10/25 08:30:56;;;;;;;4.43;3.33;;;10.40;99.90;;;;;;4974014;28;20184;-80
2023/10/25 08:33:22;;;;;;;3.40;3.10;;;10.40;99.90;;;;;;4974145;28;20176;-80
2023/10/25 08:35:47;;;;;;;3.37;3.07;;;10.40;99.90;;;;;;4973762;28;20179;-81
2023/10/25 08:38:13;;;;;;;3.10;2.90;;;10.40;99.90;;;;;;4973956;28;20226;-81
2023/10/25 08:40:40;;;;;;;3.03;2.80;;;10.40;99.90;;;;;;4974111;28;20179;-80
2023/10/25 08:43:07;;;;;;;4.20;3.80;;;10.40;99.90;;;;;;4973949;28;20172;-80
2023/10/25 08:45:35;;;;;;;3.57;3.33;;;10.40;99.90;;;;;;4974118;28;20175;-80
2023/10/25 08:48:02;;;;;;;5.53;3.83;;;10.40;99.90;;;;;;4975029;28;20179;-81
2023/10/25 08:50:30;;;;;;;5.30;3.80;;;10.40;99.90;;;;;;4977274;28;20207;-80
2023/10/25 08:52:57;;;;;;;4.67;3.70;;;10.40;99.90;;;;;;4977478;28;20191;-81
2023/10/25 08:55:23;;;;;;;4.63;4.23;;;10.50;99.90;;;;;;4976581;28;20542;-79
2023/10/25 08:57:54;;;;;;;5.20;4.20;;;10.50;99.90;;;;;;4976475;28;20203;-80
2023/10/25 09:00:20;;;;;;;5.03;4.17;;;10.50;99.90;;;;;;4977931;28;20168;-81
2023/10/25 09:02:46;;;;;;;3.90;3.60;;;10.40;99.90;;;;;;4977484;28;20632;-81
2023/10/25 09:05:12;;;;;;;5.00;4.00;;;10.40;99.90;;;;;;4975694;28;20182;-81
2023/10/25 09:07:38;;;;;;;3.90;3.60;;;10.50;99.90;;;;;;4977670;28;20247;-81
2023/10/25 09:10:11;;;;;;;4.03;3.63;;;10.50;99.90;;;;;;4977629;28;20241;-81
2023/10/25 09:12:37;;;;;;;4.77;4.37;;;10.50;99.90;;;;;;4978137;28;20240;-81
2023/10/25 09:15:03;;;;;;;5.80;5.20;;;10.50;99.90;;;;;;4977597;28;20184;-79
2023/10/25 09:17:31;;;;;;;4.70;4.30;;;10.50;99.90;;;;;;4977185;28;20214;-75
2023/10/25 09:19:57;;;;;;;5.43;4.97;;;10.50;99.90;;;;;;4977263;28;20235;-75
2023/10/25 09:22:25;;;;;;;5.60;5.03;;;10.50;99.90;;;;;;4977357;28;20176;-74
2023/10/25 09:24:52;;;;;;;4.87;4.47;;;10.50;99.90;;;;;;4976486;28;20216;-74
2023/10/25 09:27:19;;;;;;;5.60;5.10;;;10.50;99.90;;;;;;4975241;28;20187;-74
2023/10/25 09:29:46;;;;;;;4.60;4.20;;;10.60;99.90;;;;;;4975643;28;20695;-73
2023/10/25 09:32:12;;;;;;;5.20;4.80;;;10.60;99.90;;;;;;4977304;28;20190;-72
2023/10/25 09:34:38;;;;;;;5.73;5.23;;;10.70;99.90;;;;;;4976176;28;20252;-74
2023/10/25 09:37:06;;;;;;;5.60;5.07;;;10.80;99.90;;;;;;4975628;28;20172;-74
2023/10/25 09:39:35;;;;;;;6.57;5.90;;;10.80;99.90;;;;;;4976679;28;20172;-74
2023/10/25 09:42:02;;;;;;;6.60;5.97;;;10.70;99.90;;;;;;4976539;28;20239;-74
2023/10/25 09:44:31;;;;;;;6.33;5.73;;;10.80;99.90;;;;;;4977204;28;20679;-73
2023/10/25 09:46:58;;;;;;;6.43;5.90;;;10.60;99.90;;;;;;4976506;28;20648;-74
2023/10/25 09:49:29;;;;;;;6.73;6.03;;;10.80;99.90;;;;;;4976029;28;20207;-72
2023/10/25 09:52:19;;;;;;;8.13;7.03;;;10.80;99.90;;;;;;4976729;28;20621;-73
2023/10/25 09:54:52;;;;;;;8.70;7.63;;;10.90;99.90;;;;;;4968973;28;20180;-73
2023/10/25 09:57:19;;;;;;;7.60;6.90;;;11.00;99.90;;;;;;4976702;28;20176;-73
2023/10/25 09:59:46;;;;;;;6.87;6.27;;;11.00;99.90;;;;;;4975458;28;20180;-73
2023/10/25 10:02:50;;;;;;;6.27;5.67;;;11.10;99.90;;;;;;4975557;28;20263;-73
2023/10/25 10:05:21;;;;;;;5.40;5.00;;;11.10;99.90;;;;;;4976368;28;20644;-73
2023/10/25 10:08:05;;;;;;;6.30;5.70;;;11.10;99.90;;;;;;4974790;28;20702;-74
2023/10/25 10:10:49;;;;;;;8.50;7.60;;;11.00;99.90;;;;;;4970437;28;20218;-75
2023/10/25 10:13:20;;;;;;;5.97;5.47;;;11.20;99.90;;;;;;4976130;28;20189;-75
2023/10/25 10:16:04;;;;;;;6.50;5.87;;;11.10;99.90;;;;;;4972759;28;20242;-76
2023/10/25 10:18:43;;;;;;;8.27;6.43;;;11.20;99.90;;;;;;4992855;28;20174;-74
2023/10/25 10:21:10;;;;;;;7.13;6.43;;;11.30;99.90;;;;;;4995139;28;20202;-77
2023/10/25 10:23:40;;;;;;;8.40;7.60;;;11.30;99.90;;;;;;4993668;28;20227;-75
2023/10/25 10:26:10;;;;;;;12.70;9.10;;;11.30;99.90;;;;;;4977828;28;20183;-78
2023/10/25 10:28:46;;;;;;;11.07;8.80;;;11.30;99.90;;;;;;4975744;28;20176;-76
2023/10/25 10:31:13;;;;;;;10.63;8.83;;;11.30;99.90;;;;;;4974053;28;20176;-76
2023/10/25 10:33:49;;;;;;;10.10;9.07;;;11.40;99.90;;;;;;4974253;28;20180;-76
2023/10/25 10:36:31;;;;;;;8.93;7.90;;;11.60;99.90;;;;;;4975614;28;20234;-76
2023/10/25 10:39:16;;;;;;;9.03;8.20;;;11.50;99.90;;;;;;4975506;28;20172;-76
2023/10/25 10:41:44;;;;;;;9.07;6.60;;;11.50;99.90;;;;;;4974508;28;20175;-75
2023/10/25 10:44:11;;;;;;;6.90;6.00;;;11.50;99.90;;;;;;4974906;28;20190;-75
2023/10/25 10:46:49;;;;;;;7.73;6.90;;;11.60;99.90;;;;;;4975136;28;20176;-77
2023/10/25 10:49:19;;;;;;;7.13;6.50;;;11.60;99.90;;;;;;4973606;28;20199;-77
2023/10/25 10:51:44;;;;;;;6.23;5.73;;;11.60;99.90;;;;;;4966018;28;20698;-77
2023/10/25 10:54:10;;;;;;;7.87;6.87;;;11.70;99.90;;;;;;4974468;28;20172;-77
2023/10/25 10:56:36;;;;;;;8.20;7.03;;;11.80;99.90;;;;;;4972862;28;20238;-74
2023/10/25 10:59:02;;;;;;;8.13;6.40;;;11.90;99.90;;;;;;4972857;28;20195;-75
2023/10/25 11:01:29;;;;;;;7.10;6.40;;;12.00;99.90;;;;;;4971171;28;20187;-77
2023/10/25 11:03:58;;;;;;;8.27;6.53;;;12.00;99.90;;;;;;4970271;28;20208;-74
2023/10/25 11:06:25;;;;;;;7.03;6.33;;;12.10;99.90;;;;;;4974968;28;20183;-78
2023/10/25 11:08:52;;;;;;;7.10;6.40;;;12.10;99.90;;;;;;4973143;28;20208;-74
2023/10/25 11:11:21;;;;;;;6.10;5.60;;;12.00;99.90;;;;;;4969548;28;20180;-77
2023/10/25 11:13:50;;;;;;;7.10;6.40;;;12.00;99.90;;;;;;4963851;28;20268;-77
2023/10/25 11:16:16;;;;;;;7.13;6.43;;;12.10;99.90;;;;;;4969852;28;20184;-75
2023/10/25 11:18:42;;;;;;;7.27;6.57;;;12.30;99.90;;;;;;4963153;28;20537;-76
2023/10/25 11:21:07;;;;;;;8.60;6.03;;;12.30;99.90;;;;;;4970597;28;20176;-78
2023/10/25 11:23:33;;;;;;;7.63;6.07;;;12.30;99.90;;;;;;4972812;28;20726;-76
2023/10/25 11:25:59;;;;;;;7.17;5.93;;;12.30;99.90;;;;;;4973204;28;20184;-76
2023/10/25 11:28:26;;;;;;;5.70;5.10;;;12.30;99.90;;;;;;4969500;28;20184;-75
2023/10/25 11:30:51;;;;;;;6.40;5.67;;;12.30;99.90;;;;;;4967037;28;20188;-76
2023/10/25 11:33:17;;;;;;;6.70;6.07;;;12.40;99.90;;;;;;4971707;28;20231;-75
2023/10/25 11:35:43;;;;;;;6.23;5.57;;;12.60;99.90;;;;;;4971662;28;20203;-75
2023/10/25 11:38:09;;;;;;;6.70;5.30;;;12.70;99.90;;;;;;4970717;28;20183;-75
2023/10/25 11:40:35;;;;;;;6.40;5.90;;;12.60;99.90;;;;;;4969929;28;21493;-76
2023/10/25 11:43:01;;;;;;;5.87;5.27;;;12.70;99.90;;;;;;4971759;28;20271;-74
2023/10/25 11:45:27;;;;;;;6.63;5.47;;;12.60;99.90;;;;;;4972025;28;20188;-74
2023/10/25 11:47:54;;;;;;;7.43;6.23;;;12.60;99.90;;;;;;4968862;28;21116;-75
2023/10/25 11:50:20;;;;;;;7.30;6.60;;;12.70;99.90;;;;;;4972250;28;20222;-75
2023/10/25 11:52:45;;;;;;;8.03;7.23;;;12.90;99.90;;;;;;4969375;28;20652;-74
2023/10/25 11:55:11;;;;;;;6.03;5.40;;;13.10;99.90;;;;;;4972846;28;20238;-75
2023/10/25 11:57:39;;;;;;;7.53;5.83;;;13.20;99.90;;;;;;4969936;28;20288;-75
2023/10/25 12:00:08;;;;;;;8.53;6.57;;;13.20;99.90;;;;;;4973486;28;20171;-75
2023/10/25 12:02:35;;;;;;;8.40;6.80;;;13.20;99.90;;;;;;4965425;28;20171;-77
2023/10/25 12:05:03;;;;;;;6.20;5.60;;;13.20;99.90;;;;;;4972000;28;20671;-76
2023/10/25 12:07:31;;;;;;;9.00;6.23;;;13.10;99.90;;;;;;4972935;28;20186;-76
2023/10/25 12:09:57;;;;;;;7.57;6.23;;;13.20;99.90;;;;;;4971864;28;20306;-77
2023/10/25 12:12:23;;;;;;;12.87;9.03;;;13.10;99.90;;;;;;4982165;28;20293;-76
2023/10/25 12:14:50;;;;;;;7.33;6.47;;;13.10;99.90;;;;;;4960190;28;20246;-76
2023/10/25 12:17:15;;;;;;;7.63;6.80;;;13.20;99.90;;;;;;4973437;28;20179;-75
2023/10/25 12:19:41;;;;;;;7.60;6.53;;;13.20;99.90;;;;;;4972907;28;20164;-75
2023/10/25 12:22:09;;;;;;;7.00;6.40;;;13.30;99.90;;;;;;4968661;28;20270;-75
2023/10/25 12:24:39;;;;;;;10.43;7.87;;;13.30;99.90;;;;;;4968628;28;20268;-75
2023/10/25 12:27:07;;;;;;;11.03;9.93;;;13.50;99.90;;;;;;4972089;28;20215;-74
2023/10/25 12:29:33;;;;;;;9.03;8.27;;;13.80;99.90;;;;;;4972801;28;20751;-75
2023/10/25 12:32:00;;;;;;;8.20;7.37;;;13.90;99.90;;;;;;4968973;28;20187;-75
2023/10/25 12:34:25;;;;;;;9.67;8.67;;;14.00;99.90;;;;;;4972345;28;20184;-75
2023/10/25 12:36:51;;;;;;;8.77;7.97;;;14.00;99.90;;;;;;4970936;28;20234;-75
2023/10/25 12:39:17;;;;;;;9.17;8.30;;;14.10;99.90;;;;;;4976704;28;20210;-76
2023/10/25 12:41:44;;;;;;;7.80;6.90;;;14.20;99.90;;;;;;4972720;28;20203;-75
2023/10/25 12:44:11;;;;;;;7.03;6.50;;;14.40;99.90;;;;;;4972362;28;20203;-75